Aeroporto :
LOGIN :

Iscrizione | Disclaimer

   EN    FR    IT 

 










Sommario :    VFR   VFR Marginale   IFR   IFR Intensivo   IFR Molto Intensivo
Visibilità : 
Base nubi : 
>= 8 km
>= 3000ft
5 / 8 km
1000 / 3000 ft
1500m / 5 km
500 / 1000 ft
800 / 1500m
200 / 500 ft
< 800m
< 200 ft
Simboli :   Temporali  Nebbia  Neve Forte  Precipitazioni Forti  Vento > 20 kt
SIGMETs :   Varie  Temporali  Ghiacco  Turbolenza  Onda orograficha  Ceneri Vulcaniche







- Altitudine del aeroporto : 529 ft
- Codice IATA : CHR
- Carte del aeroporto


LFLX - Chateauroux

ULTIMO METAR :
  • 190800Z AUTO 26008KT 2200 BR OVC002 11/11 Q1008 TEMPO 4000 -RA BR BKN005

METARs OBSOLETI :
  • 190730Z AUTO 25008KT 1500 1200 R21/1800U BR OVC002 11/11 Q1007 TEMPO 4000 -RA BR BKN005
  • 190700Z AUTO 25008KT 1700 1400 R21/1900N BR OVC002 11/10 Q1007 NOSIG
  • 190630Z AUTO 25008KT 2600 BR OVC002 11/10 Q1007 NOSIG
  • 190600Z AUTO 25009KT 2300 BR OVC003 11/10 Q1007 NOSIG
  • 190530Z AUTO 25008KT 3200 BR OVC003 10/10 Q1007 TEMPO 1500

TAF AMD TAF LFLX
Valido dal 19 a 07 ore il 20 a 12 ore UTC


190711Z 1907/2012 25007KT 6000 BKN011
TEMPO 1907/1910 4000 -RA BR BKN005
PROB40
TEMPO 1907/1909 1500 BKN002
BECMG 1910/1912 9999 BKN020
TEMPO 1910/1921 4000 SHRA SCT025TCU
PROB30
TEMPO 1915/1920 29010G20KT 2500 -TSRA SCT014 BKN020CB
PROB40
TEMPO 2002/2008 BKN007
TEMPO 2011/2012 29010G20KT 4000 SHRA SCT025TCU
Nessun NOTAM noto per questo aeroporto.



MetMap, La meteo Aeronautica in un colpo d'occhio ! - Copyright ORBIFLY Dicembre 2007 - Disclaimer

ORBIFLY MET'MAP TEAM :

Programmazione e sviluppo : Alexandra Zaïnal
Concezione e sviluppo : Baudouin d'Aumeries
Co-Programmazione e sviluppo : Marc-Olivier Méhu
Supporto tecnico e logistico : Manuel Goepfert
Aiuto per la traduzione : Arnaldo La Scala

Contatto : metmap@orbifly.com




FONTI E CREDITI :

   NOAA